sensor_id;sensor_type;location;lat;lon;timestamp;P1;durP1;ratioP1;P2;durP2;ratioP2
59702;SDS011;45570;48.782;8.332;2023-03-26T08:38:30;5.30;;;2.13;;
59702;SDS011;45570;48.782;8.332;2023-03-26T08:44:09;4.72;;;1.80;;
59702;SDS011;45570;48.782;8.332;2023-03-26T08:47:09;4.28;;;1.25;;
59702;SDS011;45570;48.782;8.332;2023-03-26T08:53:33;7.15;;;1.45;;
59702;SDS011;45570;48.782;8.332;2023-03-26T08:56:18;4.80;;;1.43;;
59702;SDS011;45570;48.782;8.332;2023-03-26T09:26:49;3.63;;;1.20;;
59702;SDS011;45570;48.782;8.332;2023-03-26T09:35:44;2.42;;;1.20;;
59702;SDS011;45570;48.782;8.332;2023-03-26T09:38:25;2.35;;;1.40;;
59702;SDS011;45570;48.782;8.332;2023-03-26T09:41:01;5.32;;;1.30;;
59702;SDS011;45570;48.782;8.332;2023-03-26T09:46:48;5.82;;;1.95;;
59702;SDS011;45570;48.782;8.332;2023-03-26T09:49:42;4.43;;;1.20;;
59702;SDS011;45570;48.782;8.332;2023-03-26T09:52:20;2.90;;;1.10;;
59702;SDS011;45570;48.782;8.332;2023-03-26T09:55:08;3.10;;;1.30;;
59702;SDS011;45570;48.782;8.332;2023-03-26T10:01:13;1.73;;;1.20;;
59702;SDS011;45570;48.782;8.332;2023-03-26T10:03:50;5.20;;;1.30;;
59702;SDS011;45570;48.782;8.332;2023-03-26T10:06:28;6.05;;;1.35;;
59702;SDS011;45570;48.782;8.332;2023-03-26T10:12:22;4.18;;;1.20;;
59702;SDS011;45570;48.782;8.332;2023-03-26T10:15:01;3.30;;;1.10;;
59702;SDS011;45570;48.782;8.332;2023-03-26T10:17:42;3.25;;;1.10;;
59702;SDS011;45570;48.782;8.332;2023-03-26T10:20:29;2.83;;;0.90;;
59702;SDS011;45570;48.782;8.332;2023-03-26T10:23:07;4.22;;;1.20;;
59702;SDS011;45570;48.782;8.332;2023-03-26T10:26:09;2.03;;;0.90;;
59702;SDS011;45570;48.782;8.332;2023-03-26T10:29:09;3.42;;;1.10;;
59702;SDS011;45570;48.782;8.332;2023-03-26T10:31:56;4.88;;;0.98;;
59702;SDS011;45570;48.782;8.332;2023-03-26T10:37:35;6.63;;;1.30;;
59702;SDS011;45570;48.782;8.332;2023-03-26T10:40:19;2.85;;;1.10;;
59702;SDS011;45570;48.782;8.332;2023-03-26T10:46:07;2.65;;;1.15;;
59702;SDS011;45570;48.782;8.332;2023-03-26T10:51:54;2.30;;;1.35;;
59702;SDS011;45570;48.782;8.332;2023-03-26T10:54:35;4.30;;;1.13;;
59702;SDS011;45570;48.782;8.332;2023-03-26T10:57:13;3.70;;;1.23;;
59702;SDS011;45570;48.782;8.332;2023-03-26T10:59:51;5.80;;;1.25;;
59702;SDS011;45570;48.782;8.332;2023-03-26T11:02:25;2.55;;;1.00;;
59702;SDS011;45570;48.782;8.332;2023-03-26T11:05:02;5.70;;;1.10;;
59702;SDS011;45570;48.782;8.332;2023-03-26T11:07:48;6.45;;;1.15;;
59702;SDS011;45570;48.782;8.332;2023-03-26T11:10:24;2.70;;;1.23;;
59702;SDS011;45570;48.782;8.332;2023-03-26T11:13:06;3.00;;;1.42;;
59702;SDS011;45570;48.782;8.332;2023-03-26T11:15:46;2.53;;;1.05;;
59702;SDS011;45570;48.782;8.332;2023-03-26T11:18:20;4.65;;;1.30;;
59702;SDS011;45570;48.782;8.332;2023-03-26T11:20:56;5.18;;;1.50;;
59702;SDS011;45570;48.782;8.332;2023-03-26T11:23:48;2.22;;;1.23;;
59702;SDS011;45570;48.782;8.332;2023-03-26T11:26:35;3.63;;;1.30;;
59702;SDS011;45570;48.782;8.332;2023-03-26T11:29:13;4.97;;;1.20;;
59702;SDS011;45570;48.782;8.332;2023-03-26T11:32:10;3.15;;;1.60;;
59702;SDS011;45570;48.782;8.332;2023-03-26T11:34:44;4.43;;;1.33;;
59702;SDS011;45570;48.782;8.332;2023-03-26T11:37:19;6.63;;;1.27;;
59702;SDS011;45570;48.782;8.332;2023-03-26T11:39:55;5.43;;;1.05;;
59702;SDS011;45570;48.782;8.332;2023-03-26T11:42:27;2.83;;;1.00;;
59702;SDS011;45570;48.782;8.332;2023-03-26T11:44:56;3.95;;;1.50;;
59702;SDS011;45570;48.782;8.332;2023-03-26T11:47:29;5.05;;;1.25;;
59702;SDS011;45570;48.782;8.332;2023-03-26T11:50:02;3.63;;;0.95;;
59702;SDS011;45570;48.782;8.332;2023-03-26T11:52:32;3.20;;;1.35;;
59702;SDS011;45570;48.782;8.332;2023-03-26T11:55:01;3.30;;;1.20;;
59702;SDS011;45570;48.782;8.332;2023-03-26T11:57:31;3.05;;;1.15;;
59702;SDS011;45570;48.782;8.332;2023-03-26T12:00:04;3.00;;;1.20;;
59702;SDS011;45570;48.782;8.332;2023-03-26T12:02:43;7.57;;;1.20;;
59702;SDS011;45570;48.782;8.332;2023-03-26T12:05:17;3.20;;;1.10;;
59702;SDS011;45570;48.782;8.332;2023-03-26T12:07:51;4.80;;;1.13;;
59702;SDS011;45570;48.782;8.332;2023-03-26T12:10:22;5.40;;;1.35;;
59702;SDS011;45570;48.782;8.332;2023-03-26T12:12:57;4.40;;;1.15;;
59702;SDS011;45570;48.782;8.332;2023-03-26T12:15:28;4.72;;;1.55;;
59702;SDS011;45570;48.782;8.332;2023-03-26T12:17:58;4.28;;;1.35;;
59702;SDS011;45570;48.782;8.332;2023-03-26T12:20:47;2.40;;;1.00;;
59702;SDS011;45570;48.782;8.332;2023-03-26T12:26:12;4.18;;;1.13;;
59702;SDS011;45570;48.782;8.332;2023-03-26T12:28:44;5.90;;;1.90;;
59702;SDS011;45570;48.782;8.332;2023-03-26T12:31:15;3.60;;;1.20;;
59702;SDS011;45570;48.782;8.332;2023-03-26T12:33:50;3.38;;;1.15;;
59702;SDS011;45570;48.782;8.332;2023-03-26T12:39:10;8.45;;;1.63;;
59702;SDS011;45570;48.782;8.332;2023-03-26T12:42:29;5.55;;;1.17;;
59702;SDS011;45570;48.782;8.332;2023-03-26T12:45:22;4.07;;;1.20;;
59702;SDS011;45570;48.782;8.332;2023-03-26T12:47:55;5.43;;;1.08;;
59702;SDS011;45570;48.782;8.332;2023-03-26T12:50:34;8.18;;;2.08;;
59702;SDS011;45570;48.782;8.332;2023-03-26T12:56:16;4.43;;;1.77;;
59702;SDS011;45570;48.782;8.332;2023-03-26T12:58:51;3.65;;;1.23;;
59702;SDS011;45570;48.782;8.332;2023-03-26T13:01:37;3.13;;;1.20;;
59702;SDS011;45570;48.782;8.332;2023-03-26T13:04:20;6.50;;;1.48;;
59702;SDS011;45570;48.782;8.332;2023-03-26T13:07:29;2.05;;;1.00;;
59702;SDS011;45570;48.782;8.332;2023-03-26T13:13:10;7.28;;;1.48;;
59702;SDS011;45570;48.782;8.332;2023-03-26T13:15:58;2.90;;;1.40;;
59702;SDS011;45570;48.782;8.332;2023-03-26T13:18:35;3.55;;;1.15;;
59702;SDS011;45570;48.782;8.332;2023-03-26T13:21:11;3.75;;;1.10;;
59702;SDS011;45570;48.782;8.332;2023-03-26T13:23:51;3.15;;;1.42;;
59702;SDS011;45570;48.782;8.332;2023-03-26T13:26:27;2.83;;;1.30;;
59702;SDS011;45570;48.782;8.332;2023-03-26T13:29:05;5.03;;;1.08;;
59702;SDS011;45570;48.782;8.332;2023-03-26T13:31:40;2.70;;;1.17;;
59702;SDS011;45570;48.782;8.332;2023-03-26T13:36:50;1.65;;;0.80;;
59702;SDS011;45570;48.782;8.332;2023-03-26T13:39:31;7.13;;;1.42;;
59702;SDS011;45570;48.782;8.332;2023-03-26T13:42:09;4.63;;;1.30;;
59702;SDS011;45570;48.782;8.332;2023-03-26T13:44:52;5.85;;;1.38;;
59702;SDS011;45570;48.782;8.332;2023-03-26T13:47:32;4.88;;;1.20;;
59702;SDS011;45570;48.782;8.332;2023-03-26T13:50:09;4.82;;;1.00;;
59702;SDS011;45570;48.782;8.332;2023-03-26T13:52:46;5.97;;;1.35;;
59702;SDS011;45570;48.782;8.332;2023-03-26T13:55:18;4.88;;;1.45;;
59702;SDS011;45570;48.782;8.332;2023-03-26T13:57:53;2.38;;;1.30;;
59702;SDS011;45570;48.782;8.332;2023-03-26T14:00:28;5.10;;;1.42;;
59702;SDS011;45570;48.782;8.332;2023-03-26T14:03:07;1.35;;;0.70;;
59702;SDS011;45570;48.782;8.332;2023-03-26T14:05:45;2.42;;;0.80;;
59702;SDS011;45570;48.782;8.332;2023-03-26T14:08:17;4.43;;;0.90;;
59702;SDS011;45570;48.782;8.332;2023-03-26T14:10:50;1.80;;;1.00;;
59702;SDS011;45570;48.782;8.332;2023-03-26T14:13:23;4.78;;;1.10;;
59702;SDS011;45570;48.782;8.332;2023-03-26T14:15:57;4.37;;;0.80;;
59702;SDS011;45570;48.782;8.332;2023-03-26T14:18:36;3.28;;;0.88;;
59702;SDS011;45570;48.782;8.332;2023-03-26T14:21:27;3.72;;;0.82;;
59702;SDS011;45570;48.782;8.332;2023-03-26T14:27:32;3.70;;;0.70;;
59702;SDS011;45570;48.782;8.332;2023-03-26T14:30:21;2.25;;;0.70;;
59702;SDS011;45570;48.782;8.332;2023-03-26T14:33:11;2.75;;;0.90;;
59702;SDS011;45570;48.782;8.332;2023-03-26T14:35:56;2.85;;;0.80;;
59702;SDS011;45570;48.782;8.332;2023-03-26T14:38:42;2.45;;;0.80;;
59702;SDS011;45570;48.782;8.332;2023-03-26T14:41:26;4.25;;;0.70;;
59702;SDS011;45570;48.782;8.332;2023-03-26T14:46:55;2.13;;;0.55;;
59702;SDS011;45570;48.782;8.332;2023-03-26T14:52:46;1.98;;;0.77;;
59702;SDS011;45570;48.782;8.332;2023-03-26T14:55:29;1.65;;;0.85;;
59702;SDS011;45570;48.782;8.332;2023-03-26T14:58:36;1.85;;;0.88;;
59702;SDS011;45570;48.782;8.332;2023-03-26T15:01:45;3.60;;;0.80;;
59702;SDS011;45570;48.782;8.332;2023-03-26T15:07:39;4.32;;;0.93;;
59702;SDS011;45570;48.782;8.332;2023-03-26T15:26:06;0.60;;;0.50;;
59702;SDS011;45570;48.782;8.332;2023-03-26T15:29:14;2.80;;;0.90;;
59702;SDS011;45570;48.782;8.332;2023-03-26T15:32:11;2.67;;;0.70;;
59702;SDS011;45570;48.782;8.332;2023-03-26T15:40:54;1.50;;;0.80;;
59702;SDS011;45570;48.782;8.332;2023-03-26T15:43:48;1.52;;;0.68;;
59702;SDS011;45570;48.782;8.332;2023-03-26T15:46:53;1.05;;;0.65;;
59702;SDS011;45570;48.782;8.332;2023-03-26T15:52:13;0.65;;;0.63;;
59702;SDS011;45570;48.782;8.332;2023-03-26T15:54:52;0.95;;;0.55;;
59702;SDS011;45570;48.782;8.332;2023-03-26T15:57:28;3.00;;;0.55;;
59702;SDS011;45570;48.782;8.332;2023-03-26T16:00:10;0.70;;;0.60;;
59702;SDS011;45570;48.782;8.332;2023-03-26T16:08:56;0.50;;;0.50;;
59702;SDS011;45570;48.782;8.332;2023-03-26T16:11:47;0.57;;;0.57;;
59702;SDS011;45570;48.782;8.332;2023-03-26T16:14:20;0.60;;;0.50;;
59702;SDS011;45570;48.782;8.332;2023-03-26T16:16:53;1.40;;;0.57;;
59702;SDS011;45570;48.782;8.332;2023-03-26T16:19:30;2.90;;;0.65;;
59702;SDS011;45570;48.782;8.332;2023-03-26T16:22:21;0.60;;;0.60;;
59702;SDS011;45570;48.782;8.332;2023-03-26T16:25:18;4.05;;;0.73;;
59702;SDS011;45570;48.782;8.332;2023-03-26T16:28:13;1.92;;;1.10;;
59702;SDS011;45570;48.782;8.332;2023-03-26T16:31:03;0.52;;;0.50;;
59702;SDS011;45570;48.782;8.332;2023-03-26T16:34:24;1.50;;;0.73;;
59702;SDS011;45570;48.782;8.332;2023-03-26T16:36:57;0.60;;;0.47;;
59702;SDS011;45570;48.782;8.332;2023-03-26T16:39:39;1.02;;;0.70;;
59702;SDS011;45570;48.782;8.332;2023-03-26T16:42:23;2.60;;;0.60;;
59702;SDS011;45570;48.782;8.332;2023-03-26T16:45:02;0.60;;;0.60;;
59702;SDS011;45570;48.782;8.332;2023-03-26T16:47:41;0.60;;;0.60;;
59702;SDS011;45570;48.782;8.332;2023-03-26T16:50:19;1.40;;;0.60;;
59702;SDS011;45570;48.782;8.332;2023-03-26T16:52:56;1.65;;;0.55;;
59702;SDS011;45570;48.782;8.332;2023-03-26T16:55:34;3.30;;;0.60;;
59702;SDS011;45570;48.782;8.332;2023-03-26T16:58:12;3.03;;;0.70;;
59702;SDS011;45570;48.782;8.332;2023-03-26T17:00:48;1.58;;;1.40;;
59702;SDS011;45570;48.782;8.332;2023-03-26T17:03:26;1.40;;;0.50;;
59702;SDS011;45570;48.782;8.332;2023-03-26T17:06:08;0.95;;;0.47;;
59702;SDS011;45570;48.782;8.332;2023-03-26T17:09:01;0.95;;;0.70;;
59702;SDS011;45570;48.782;8.332;2023-03-26T17:11:44;1.77;;;0.73;;
59702;SDS011;45570;48.782;8.332;2023-03-26T17:14:26;2.28;;;0.85;;
59702;SDS011;45570;48.782;8.332;2023-03-26T17:17:05;1.58;;;0.60;;
59702;SDS011;45570;48.782;8.332;2023-03-26T17:19:54;1.63;;;0.60;;
59702;SDS011;45570;48.782;8.332;2023-03-26T17:22:37;1.20;;;0.60;;
59702;SDS011;45570;48.782;8.332;2023-03-26T17:25:27;1.10;;;0.75;;
59702;SDS011;45570;48.782;8.332;2023-03-26T17:28:27;1.45;;;0.80;;
59702;SDS011;45570;48.782;8.332;2023-03-26T17:31:10;0.77;;;0.60;;
59702;SDS011;45570;48.782;8.332;2023-03-26T17:33:46;0.60;;;0.50;;
59702;SDS011;45570;48.782;8.332;2023-03-26T17:42:39;1.35;;;0.75;;
59702;SDS011;45570;48.782;8.332;2023-03-26T17:45:29;2.13;;;0.68;;
59702;SDS011;45570;48.782;8.332;2023-03-26T17:48:01;0.80;;;0.80;;
59702;SDS011;45570;48.782;8.332;2023-03-26T17:50:38;2.93;;;1.03;;
59702;SDS011;45570;48.782;8.332;2023-03-26T17:53:14;1.65;;;0.90;;
59702;SDS011;45570;48.782;8.332;2023-03-26T17:55:47;1.45;;;0.88;;
59702;SDS011;45570;48.782;8.332;2023-03-26T17:58:21;2.85;;;0.90;;
59702;SDS011;45570;48.782;8.332;2023-03-26T18:00:59;3.10;;;0.85;;
59702;SDS011;45570;48.782;8.332;2023-03-26T18:03:33;1.38;;;1.02;;
59702;SDS011;45570;48.782;8.332;2023-03-26T18:06:05;4.13;;;1.15;;
59702;SDS011;45570;48.782;8.332;2023-03-26T18:08:42;1.58;;;0.88;;
59702;SDS011;45570;48.782;8.332;2023-03-26T18:11:27;2.28;;;1.05;;
59702;SDS011;45570;48.782;8.332;2023-03-26T18:14:24;2.78;;;0.80;;
59702;SDS011;45570;48.782;8.332;2023-03-26T18:17:16;2.33;;;0.68;;
59702;SDS011;45570;48.782;8.332;2023-03-26T18:19:46;1.60;;;0.65;;
59702;SDS011;45570;48.782;8.332;2023-03-26T18:22:17;15.30;;;2.25;;
59702;SDS011;45570;48.782;8.332;2023-03-26T18:24:48;1.30;;;0.75;;
59702;SDS011;45570;48.782;8.332;2023-03-26T18:27:18;4.50;;;0.95;;
59702;SDS011;45570;48.782;8.332;2023-03-26T18:29:58;1.00;;;0.80;;
59702;SDS011;45570;48.782;8.332;2023-03-26T18:32:29;1.20;;;0.60;;
59702;SDS011;45570;48.782;8.332;2023-03-26T18:35:00;2.90;;;0.57;;
59702;SDS011;45570;48.782;8.332;2023-03-26T18:37:42;2.30;;;0.70;;
59702;SDS011;45570;48.782;8.332;2023-03-26T18:40:13;0.77;;;0.77;;
59702;SDS011;45570;48.782;8.332;2023-03-26T18:42:45;0.90;;;0.60;;
59702;SDS011;45570;48.782;8.332;2023-03-26T18:45:22;1.52;;;0.70;;
59702;SDS011;45570;48.782;8.332;2023-03-26T18:47:53;0.85;;;0.60;;
59702;SDS011;45570;48.782;8.332;2023-03-26T18:50:25;1.40;;;0.70;;
59702;SDS011;45570;48.782;8.332;2023-03-26T18:52:56;2.17;;;0.60;;
59702;SDS011;45570;48.782;8.332;2023-03-26T18:55:26;1.23;;;0.70;;
59702;SDS011;45570;48.782;8.332;2023-03-26T18:57:56;0.80;;;0.80;;
59702;SDS011;45570;48.782;8.332;2023-03-26T19:00:26;1.08;;;1.02;;
59702;SDS011;45570;48.782;8.332;2023-03-26T19:03:01;1.77;;;0.50;;
59702;SDS011;45570;48.782;8.332;2023-03-26T19:08:01;2.17;;;0.70;;
59702;SDS011;45570;48.782;8.332;2023-03-26T19:10:32;0.75;;;0.57;;
59702;SDS011;45570;48.782;8.332;2023-03-26T19:13:01;1.17;;;0.60;;
59702;SDS011;45570;48.782;8.332;2023-03-26T19:15:32;1.95;;;0.80;;
59702;SDS011;45570;48.782;8.332;2023-03-26T19:18:02;0.85;;;0.85;;
59702;SDS011;45570;48.782;8.332;2023-03-26T19:20:38;1.00;;;0.90;;
59702;SDS011;45570;48.782;8.332;2023-03-26T19:23:10;1.65;;;0.93;;
59702;SDS011;45570;48.782;8.332;2023-03-26T19:25:42;2.13;;;1.00;;
59702;SDS011;45570;48.782;8.332;2023-03-26T19:28:15;1.63;;;0.93;;
59702;SDS011;45570;48.782;8.332;2023-03-26T19:30:50;2.58;;;0.80;;
59702;SDS011;45570;48.782;8.332;2023-03-26T19:33:22;3.53;;;1.20;;
59702;SDS011;45570;48.782;8.332;2023-03-26T19:35:52;1.05;;;0.95;;
59702;SDS011;45570;48.782;8.332;2023-03-26T19:38:36;1.33;;;1.23;;
59702;SDS011;45570;48.782;8.332;2023-03-26T19:41:11;2.50;;;1.15;;
59702;SDS011;45570;48.782;8.332;2023-03-26T19:43:47;1.92;;;1.00;;
59702;SDS011;45570;48.782;8.332;2023-03-26T19:46:18;1.50;;;1.00;;
59702;SDS011;45570;48.782;8.332;2023-03-26T19:48:49;1.45;;;1.10;;
59702;SDS011;45570;48.782;8.332;2023-03-26T19:51:20;2.70;;;1.20;;
59702;SDS011;45570;48.782;8.332;2023-03-26T19:53:52;1.98;;;1.30;;
59702;SDS011;45570;48.782;8.332;2023-03-26T19:56:21;1.00;;;0.90;;
59702;SDS011;45570;48.782;8.332;2023-03-26T19:58:51;2.22;;;0.90;;
59702;SDS011;45570;48.782;8.332;2023-03-26T20:01:22;3.67;;;1.33;;
59702;SDS011;45570;48.782;8.332;2023-03-26T20:03:53;5.60;;;1.10;;
59702;SDS011;45570;48.782;8.332;2023-03-26T20:06:25;2.50;;;0.90;;
59702;SDS011;45570;48.782;8.332;2023-03-26T20:09:09;1.37;;;0.90;;
59702;SDS011;45570;48.782;8.332;2023-03-26T20:11:39;2.53;;;1.08;;
59702;SDS011;45570;48.782;8.332;2023-03-26T20:14:11;1.17;;;1.08;;
59702;SDS011;45570;48.782;8.332;2023-03-26T20:16:42;2.42;;;0.93;;
59702;SDS011;45570;48.782;8.332;2023-03-26T20:19:12;4.75;;;1.08;;
59702;SDS011;45570;48.782;8.332;2023-03-26T20:21:41;4.88;;;0.90;;
59702;SDS011;45570;48.782;8.332;2023-03-26T20:24:12;4.03;;;1.00;;
59702;SDS011;45570;48.782;8.332;2023-03-26T20:26:43;4.38;;;1.10;;
59702;SDS011;45570;48.782;8.332;2023-03-26T20:29:12;3.38;;;1.00;;
59702;SDS011;45570;48.782;8.332;2023-03-26T20:31:43;4.20;;;0.90;;
59702;SDS011;45570;48.782;8.332;2023-03-26T20:34:13;6.88;;;0.90;;
59702;SDS011;45570;48.782;8.332;2023-03-26T20:36:44;3.53;;;1.13;;
59702;SDS011;45570;48.782;8.332;2023-03-26T20:39:19;1.73;;;0.70;;
59702;SDS011;45570;48.782;8.332;2023-03-26T20:41:49;2.33;;;0.93;;
59702;SDS011;45570;48.782;8.332;2023-03-26T20:44:19;4.00;;;0.90;;
59702;SDS011;45570;48.782;8.332;2023-03-26T20:46:49;3.88;;;1.13;;
59702;SDS011;45570;48.782;8.332;2023-03-26T20:49:18;5.53;;;1.20;;
59702;SDS011;45570;48.782;8.332;2023-03-26T20:51:48;4.25;;;1.10;;
59702;SDS011;45570;48.782;8.332;2023-03-26T20:54:17;1.92;;;1.10;;
59702;SDS011;45570;48.782;8.332;2023-03-26T20:56:49;1.08;;;0.98;;
59702;SDS011;45570;48.782;8.332;2023-03-26T20:59:19;5.53;;;2.20;;
59702;SDS011;45570;48.782;8.332;2023-03-26T21:01:54;3.35;;;0.90;;
59702;SDS011;45570;48.782;8.332;2023-03-26T21:04:25;3.72;;;0.80;;
59702;SDS011;45570;48.782;8.332;2023-03-26T21:06:54;2.30;;;0.82;;
59702;SDS011;45570;48.782;8.332;2023-03-26T21:09:41;1.98;;;1.10;;
59702;SDS011;45570;48.782;8.332;2023-03-26T21:12:14;3.25;;;0.98;;
59702;SDS011;45570;48.782;8.332;2023-03-26T21:14:48;2.83;;;0.85;;
59702;SDS011;45570;48.782;8.332;2023-03-26T21:17:23;1.08;;;0.80;;
59702;SDS011;45570;48.782;8.332;2023-03-26T21:19:53;4.65;;;0.80;;
59702;SDS011;45570;48.782;8.332;2023-03-26T21:22:24;3.63;;;0.88;;
59702;SDS011;45570;48.782;8.332;2023-03-26T21:25:00;2.22;;;0.93;;
59702;SDS011;45570;48.782;8.332;2023-03-26T21:27:38;2.90;;;1.20;;
59702;SDS011;45570;48.782;8.332;2023-03-26T21:30:15;2.15;;;1.00;;
59702;SDS011;45570;48.782;8.332;2023-03-26T21:32:46;1.80;;;1.00;;
59702;SDS011;45570;48.782;8.332;2023-03-26T21:35:15;3.85;;;1.00;;
59702;SDS011;45570;48.782;8.332;2023-03-26T21:37:45;4.75;;;0.98;;
59702;SDS011;45570;48.782;8.332;2023-03-26T21:40:15;1.27;;;1.02;;
59702;SDS011;45570;48.782;8.332;2023-03-26T21:42:45;2.20;;;1.27;;
59702;SDS011;45570;48.782;8.332;2023-03-26T21:45:15;2.80;;;0.90;;
59702;SDS011;45570;48.782;8.332;2023-03-26T21:47:46;2.45;;;1.20;;
59702;SDS011;45570;48.782;8.332;2023-03-26T21:50:17;2.70;;;1.10;;
59702;SDS011;45570;48.782;8.332;2023-03-26T21:52:47;3.25;;;1.25;;
59702;SDS011;45570;48.782;8.332;2023-03-26T21:55:17;2.00;;;1.27;;
59702;SDS011;45570;48.782;8.332;2023-03-26T22:00:48;3.83;;;1.35;;
59702;SDS011;45570;48.782;8.332;2023-03-26T22:03:31;3.53;;;1.70;;
59702;SDS011;45570;48.782;8.332;2023-03-26T22:06:05;4.85;;;1.90;;
59702;SDS011;45570;48.782;8.332;2023-03-26T22:08:39;1.95;;;1.75;;
59702;SDS011;45570;48.782;8.332;2023-03-26T22:11:09;3.65;;;2.33;;
59702;SDS011;45570;48.782;8.332;2023-03-26T22:13:38;8.10;;;2.15;;
59702;SDS011;45570;48.782;8.332;2023-03-26T22:16:08;3.72;;;2.10;;
59702;SDS011;45570;48.782;8.332;2023-03-26T22:18:38;3.58;;;2.25;;
59702;SDS011;45570;48.782;8.332;2023-03-26T22:21:09;4.97;;;2.40;;
59702;SDS011;45570;48.782;8.332;2023-03-26T22:23:38;5.43;;;3.95;;
59702;SDS011;45570;48.782;8.332;2023-03-26T22:26:07;4.85;;;2.55;;
59702;SDS011;45570;48.782;8.332;2023-03-26T22:28:36;3.03;;;2.10;;
59702;SDS011;45570;48.782;8.332;2023-03-26T22:31:05;4.30;;;2.78;;
59702;SDS011;45570;48.782;8.332;2023-03-26T22:33:34;2.55;;;2.08;;
59702;SDS011;45570;48.782;8.332;2023-03-26T22:36:05;4.07;;;2.38;;
59702;SDS011;45570;48.782;8.332;2023-03-26T22:41:18;2.47;;;2.05;;
59702;SDS011;45570;48.782;8.332;2023-03-26T22:43:47;2.83;;;2.20;;
59702;SDS011;45570;48.782;8.332;2023-03-26T22:46:17;3.28;;;2.47;;
59702;SDS011;45570;48.782;8.332;2023-03-26T22:48:46;6.78;;;2.70;;
59702;SDS011;45570;48.782;8.332;2023-03-26T22:51:16;3.40;;;2.50;;
59702;SDS011;45570;48.782;8.332;2023-03-26T22:53:45;5.03;;;3.22;;
59702;SDS011;45570;48.782;8.332;2023-03-26T22:56:14;2.83;;;2.20;;
59702;SDS011;45570;48.782;8.332;2023-03-26T22:58:44;2.78;;;2.25;;
59702;SDS011;45570;48.782;8.332;2023-03-26T23:01:14;3.63;;;2.35;;
59702;SDS011;45570;48.782;8.332;2023-03-26T23:03:45;2.53;;;2.03;;
59702;SDS011;45570;48.782;8.332;2023-03-26T23:06:14;2.60;;;2.28;;
59702;SDS011;45570;48.782;8.332;2023-03-26T23:08:44;2.38;;;2.10;;
59702;SDS011;45570;48.782;8.332;2023-03-26T23:11:14;2.53;;;2.20;;
59702;SDS011;45570;48.782;8.332;2023-03-26T23:13:43;3.65;;;2.30;;
59702;SDS011;45570;48.782;8.332;2023-03-26T23:16:13;3.33;;;2.10;;
59702;SDS011;45570;48.782;8.332;2023-03-26T23:18:43;4.63;;;2.00;;
59702;SDS011;45570;48.782;8.332;2023-03-26T23:21:12;6.18;;;2.65;;
59702;SDS011;45570;48.782;8.332;2023-03-26T23:23:45;2.70;;;1.90;;
59702;SDS011;45570;48.782;8.332;2023-03-26T23:26:14;4.40;;;2.22;;
59702;SDS011;45570;48.782;8.332;2023-03-26T23:28:43;1.88;;;1.77;;
59702;SDS011;45570;48.782;8.332;2023-03-26T23:31:12;3.60;;;1.80;;
59702;SDS011;45570;48.782;8.332;2023-03-26T23:33:40;3.20;;;2.10;;
59702;SDS011;45570;48.782;8.332;2023-03-26T23:36:12;2.28;;;2.08;;
